EHDV

D15-fa-1 Sea

D15-fa-1 Sea, The Netherlands
METAR EHDV 211325Z AUTO 28005KT 240V300 9999 NSC 19/16 Q1013 W///H///
Observed Flight Rules
Jul-21 @ 13:25 UTC (28 minutes ago) Visual Flight Rules
Wind Visibility Clouds
280° at 5 knots 10,000+ meters
  • Clear skies
Temperatures Readings
Current 19°C / 66°F
Dewpoint 16°C / 61°F
Humidity 83%
Altimeter 29.91" Hg
Pressure 1013 hPa
Elevation 50
METAR EHDV 211325Z AUTO 28005KT 240V300 9999 NSC 19/16 Q1013 W///H///
Observed Flight Rules
Jul-21 @ 13:25 UTC
(28 minutes ago)
VFR
Wind Visibility
280° at 5 knots 10,000+ meters
Clouds
  • Clear skies
Temperature Dewpoint
19°C / 66°F 16°C / 61°F
Humidity Altimeter Pressure
83% 29.91" Hg 1013 hPa